Time,TemperatureF,DewpointF,PressureIn,WindDirection,WindDirectionDegrees,WindSpeedMPH,WindSpeedGustMPH,Humidity,HourlyPrecipIn,Conditions,Clouds,dailyrainin,SoftwareType,DateUTC
2013-02-14 00:11:00,32.4,31.9,29.64,ESE,112,0.0,-999.0,98,-99.99,,,0.00,Acu-Link.com,2013-02-14 05:11:00,
2013-02-14 00:26:00,32.2,31.7,29.64,West,270,0.0,-999.0,98,-99.99,,,0.00,Acu-Link.com,2013-02-14 05:26:00,
2013-02-14 00:41:00,32.0,31.5,29.65,West,270,0.0,-999.0,98,-99.99,,,0.00,Acu-Link.com,2013-02-14 05:41:00,
2013-02-14 00:56:00,32.2,31.7,29.66,WSW,247,3.2,-999.0,98,-99.99,,,0.00,Acu-Link.com,2013-02-14 05:56:00,
2013-02-14 01:11:00,32.0,31.5,29.66,West,270,2.7,-999.0,98,-99.99,,,0.00,Acu-Link.com,2013-02-14 06:11:00,
2013-02-14 01:26:00,31.3,30.8,29.67,WSW,247,1.7,-999.0,98,-99.99,,,0.00,Acu-Link.com,2013-02-14 06:26:00,
2013-02-14 01:41:00,30.4,29.9,29.69,SW,225,0.0,-999.0,98,-99.99,,,0.00,Acu-Link.com,2013-02-14 06:41:00,
2013-02-14 01:57:00,29.7,29.2,29.69,West,270,0.0,-999.0,98,-99.99,,,0.00,Acu-Link.com,2013-02-14 06:57:00,
2013-02-14 02:12:00,28.0,27.5,29.70,SSW,202,0.0,-999.0,98,-99.99,,,0.00,Acu-Link.com,2013-02-14 07:12:00,
2013-02-14 02:27:00,27.0,26.5,29.71,WNW,292,0.0,-999.0,98,-99.99,,,0.00,Acu-Link.com,2013-02-14 07:27:00,
2013-02-14 02:42:00,25.9,25.4,29.72,NNW,337,0.0,-999.0,98,-99.99,,,0.00,Acu-Link.com,2013-02-14 07:42:00,
2013-02-14 02:57:00,25.5,25.0,29.73,NNW,337,0.0,-999.0,98,-99.99,,,0.00,Acu-Link.com,2013-02-14 07:57:00,
2013-02-14 03:12:00,25.0,24.5,29.73,NNW,337,0.0,-999.0,98,-99.99,,,0.00,Acu-Link.com,2013-02-14 08:12:00,
2013-02-14 03:27:00,24.1,23.6,29.74,WNW,292,0.0,-999.0,98,-99.99,,,0.00,Acu-Link.com,2013-02-14 08:27:00,
2013-02-14 03:42:00,23.7,23.2,29.74,NNW,337,0.0,-999.0,98,-99.99,,,0.00,Acu-Link.com,2013-02-14 08:42:00,
2013-02-14 03:57:00,23.2,22.7,29.75,WNW,292,0.0,-999.0,98,-99.99,,,0.00,Acu-Link.com,2013-02-14 08:57:00,
2013-02-14 04:15:00,23.0,22.5,29.74,WNW,292,0.0,-999.0,98,-99.99,,,0.00,Acu-Link.com,2013-02-14 09:15:00,
2013-02-14 04:30:00,22.6,22.1,29.76,NW,315,0.0,-999.0,98,-99.99,,,0.00,Acu-Link.com,2013-02-14 09:30:00,
2013-02-14 04:46:00,23.0,22.5,29.77,NNE,22,0.0,-999.0,98,-99.99,,,0.00,Acu-Link.com,2013-02-14 09:46:00,
2013-02-14 05:01:00,24.1,23.6,29.78,West,270,0.0,-999.0,98,-99.99,,,0.00,Acu-Link.com,2013-02-14 10:01:00,
2013-02-14 05:16:00,24.8,24.3,29.79,West,270,0.0,-999.0,98,-99.99,,,0.00,Acu-Link.com,2013-02-14 10:16:00,
2013-02-14 05:31:00,25.5,25.0,29.79,North,0,0.0,-999.0,98,-99.99,,,0.00,Acu-Link.com,2013-02-14 10:31:00,
2013-02-14 05:46:00,26.2,25.7,29.80,WSW,247,1.7,-999.0,98,-99.99,,,0.00,Acu-Link.com,2013-02-14 10:46:00,
2013-02-14 06:01:00,25.5,25.0,29.80,SSE,157,0.0,-999.0,98,-99.99,,,0.00,Acu-Link.com,2013-02-14 11:01:00,
2013-02-14 06:16:00,25.2,24.7,29.81,NE,45,0.0,-999.0,98,-99.99,,,0.00,Acu-Link.com,2013-02-14 11:16:00,
2013-02-14 06:32:00,24.6,24.1,29.81,ENE,67,0.0,-999.0,98,-99.99,,,0.00,Acu-Link.com,2013-02-14 11:32:00,
2013-02-14 06:47:00,24.6,24.1,29.83,NNE,22,0.0,-999.0,98,-99.99,,,0.00,Acu-Link.com,2013-02-14 11:47:00,
2013-02-14 07:02:00,25.5,25.0,29.83,SSE,157,0.0,-999.0,98,-99.99,,,0.00,Acu-Link.com,2013-02-14 12:02:00,
2013-02-14 07:33:00,25.9,25.4,29.85,SW,225,1.7,-999.0,98,-99.99,,,0.00,Acu-Link.com,2013-02-14 12:33:00,
2013-02-14 07:48:00,27.7,27.2,29.86,West,270,2.2,-999.0,98,-99.99,,,0.00,Acu-Link.com,2013-02-14 12:48:00,
2013-02-14 08:03:00,28.6,28.1,29.87,West,270,3.2,-999.0,98,-99.99,,,0.00,Acu-Link.com,2013-02-14 13:03:00,
2013-02-14 08:18:00,29.5,29.0,29.87,SSW,202,1.1,-999.0,98,-99.99,,,0.00,Acu-Link.com,2013-02-14 13:18:00,
2013-02-14 08:33:00,30.2,29.7,29.87,SSW,202,1.7,-999.0,98,-99.99,,,0.00,Acu-Link.com,2013-02-14 13:33:00,
2013-02-14 08:48:00,32.4,30.3,29.88,SSW,202,1.7,-999.0,92,-99.99,,,0.00,Acu-Link.com,2013-02-14 13:48:00,
2013-02-14 09:04:00,32.5,29.9,29.87,West,270,1.1,-999.0,90,-99.99,,,0.00,Acu-Link.com,2013-02-14 14:04:00,
2013-02-14 09:19:00,32.4,29.3,29.88,West,270,2.7,-999.0,88,-99.99,,,0.00,Acu-Link.com,2013-02-14 14:19:00,
2013-02-14 09:34:00,32.7,29.3,29.87,West,270,2.7,-999.0,87,-99.99,,,0.00,Acu-Link.com,2013-02-14 14:34:00,
2013-02-14 09:49:00,33.3,29.3,29.87,West,270,2.2,-999.0,85,-99.99,,,0.01,Acu-Link.com,2013-02-14 14:49:00,
2013-02-14 10:04:00,33.4,29.1,29.86,West,270,2.2,-999.0,84,-99.99,,,0.01,Acu-Link.com,2013-02-14 15:04:00,
2013-02-14 10:19:00,34.7,30.1,29.86,WSW,247,3.2,-999.0,83,-99.99,,,0.02,Acu-Link.com,2013-02-14 15:19:00,
2013-02-14 10:34:00,36.1,31.1,29.86,West,270,2.7,-999.0,82,-99.99,,,0.03,Acu-Link.com,2013-02-14 15:34:00,
2013-02-14 10:49:00,35.8,30.2,29.85,NW,315,2.7,-999.0,80,-99.99,,,0.05,Acu-Link.com,2013-02-14 15:49:00,
2013-02-14 14:52:00,40.5,33.5,29.80,WSW,247,3.7,-999.0,76,-99.99,,,0.07,Acu-Link.com,2013-02-14 19:52:00,
2013-02-14 15:12:00,41.4,33.7,29.81,West,270,2.2,-999.0,74,-99.99,,,0.07,Acu-Link.com,2013-02-14 20:12:00,
2013-02-14 15:51:00,41.4,33.7,29.80,SSW,202,2.2,-999.0,74,-99.99,,,0.07,Acu-Link.com,2013-02-14 20:51:00,